Time;durP1;ratioP1;P1;durP2;ratioP2;P2;SDS_P1;SDS_P2;PMS_P1;PMS_P2;Temp;Humidity;BMP_temperature;BMP_pressure;BME280_temperature;BME280_humidity;BME280_pressure;Samples;Min_cycle;Max_cycle;Signal;HPM_P1;HPM_P2
2022/06/18 00:01:41;;;;;;;2.63;1.95;;;;;;;;;;5030308;28;20206;-29
2022/06/18 00:04:10;;;;;;;3.55;1.98;;;;;;;;;;5017943;28;20209;-26
2022/06/18 00:06:38;;;;;;;2.22;2.13;;;;;;;;;;5032856;28;20229;-29
2022/06/18 00:09:06;;;;;;;2.00;1.90;;;;;;;;;;5033358;28;20206;-24
2022/06/18 00:14:20;;;;;;;1.98;1.85;;;;;;;;;;5028879;28;20218;-27
2022/06/18 00:16:47;;;;;;;2.10;1.95;;;;;;;;;;5030120;28;20222;-28
2022/06/18 00:19:14;;;;;;;2.20;2.00;;;;;;;;;;5019073;28;20208;-28
2022/06/18 00:21:41;;;;;;;2.88;1.77;;;;;;;;;;5032033;28;20281;-27
2022/06/18 00:24:14;;;;;;;2.45;1.98;;;;;;;;;;5034356;28;20211;-29
2022/06/18 00:26:42;;;;;;;2.43;1.97;;;;;;;;;;5017380;28;20223;-26
2022/06/18 00:29:12;;;;;;;2.60;1.90;;;;;;;;;;5026412;28;20194;-27
2022/06/18 00:31:39;;;;;;;2.08;1.50;;;;;;;;;;5029120;28;20208;-26
2022/06/18 00:34:06;;;;;;;1.90;1.75;;;;;;;;;;5022976;28;20222;-24
2022/06/18 00:36:34;;;;;;;1.92;1.80;;;;;;;;;;5028458;28;20234;-27
2022/06/18 00:39:01;;;;;;;2.13;2.00;;;;;;;;;;5032452;28;20202;-27
2022/06/18 00:41:28;;;;;;;2.00;1.80;;;;;;;;;;5025310;28;20211;-29
2022/06/18 00:43:59;;;;;;;2.20;2.00;;;;;;;;;;5021230;28;20341;-26
2022/06/18 00:46:29;;;;;;;2.10;2.00;;;;;;;;;;5031933;28;20223;-28
2022/06/18 00:49:01;;;;;;;3.08;1.70;;;;;;;;;;5016059;28;20206;-27
2022/06/18 00:51:31;;;;;;;1.70;1.60;;;;;;;;;;5027529;28;20206;-28
2022/06/18 00:54:02;;;;;;;1.80;1.70;;;;;;;;;;5031761;28;20217;-28
2022/06/18 00:56:33;;;;;;;2.37;1.70;;;;;;;;;;5022763;28;20222;-31
2022/06/18 00:59:03;;;;;;;1.52;1.48;;;;;;;;;;5017189;28;20210;-30
2022/06/18 01:01:32;;;;;;;1.83;1.73;;;;;;;;;;5022875;28;20274;-29
2022/06/18 01:03:59;;;;;;;3.23;1.90;;;;;;;;;;5022896;28;20202;-28
2022/06/18 01:06:29;;;;;;;1.77;1.67;;;;;;;;;;5027219;28;20222;-30
2022/06/18 01:08:59;;;;;;;3.28;1.70;;;;;;;;;;5031867;28;20194;-25
2022/06/18 01:11:29;;;;;;;7.13;2.30;;;;;;;;;;5031356;28;20253;-27
2022/06/18 01:13:56;;;;;;;1.63;1.53;;;;;;;;;;5030291;28;20282;-28
2022/06/18 01:16:25;;;;;;;3.70;2.37;;;;;;;;;;5031367;28;20258;-28
2022/06/18 01:18:52;;;;;;;2.03;1.83;;;;;;;;;;5025773;28;20207;-26
2022/06/18 01:21:24;;;;;;;1.97;1.80;;;;;;;;;;5026157;28;20199;-26
2022/06/18 01:23:53;;;;;;;4.60;2.13;;;;;;;;;;5031013;28;20199;-27
2022/06/18 01:26:23;;;;;;;4.40;2.00;;;;;;;;;;5022550;28;20227;-25
2022/06/18 01:28:50;;;;;;;2.20;2.00;;;;;;;;;;5030615;28;20198;-27
2022/06/18 01:31:17;;;;;;;1.70;1.60;;;;;;;;;;5030883;28;20214;-28
2022/06/18 01:33:46;;;;;;;1.60;1.50;;;;;;;;;;5013250;28;20215;-26
2022/06/18 01:36:14;;;;;;;1.97;1.87;;;;;;;;;;5025147;28;20229;-30
2022/06/18 01:38:44;;;;;;;1.90;1.80;;;;;;;;;;5030659;28;20218;-30
2022/06/18 01:44:03;;;;;;;2.23;1.73;;;;;;;;;;5033269;28;20201;-27
2022/06/18 01:46:31;;;;;;;2.20;1.90;;;;;;;;;;5031056;28;20222;-25
2022/06/18 01:48:59;;;;;;;2.00;1.73;;;;;;;;;;5016447;28;20201;-30
2022/06/18 01:51:30;;;;;;;2.97;2.23;;;;;;;;;;5029984;28;20218;-26
2022/06/18 01:54:00;;;;;;;2.35;1.80;;;;;;;;;;5030539;28;20240;-27
2022/06/18 01:56:30;;;;;;;2.00;1.90;;;;;;;;;;5018165;28;20325;-28
2022/06/18 01:58:59;;;;;;;3.60;2.10;;;;;;;;;;5022270;28;20226;-29
2022/06/18 02:01:29;;;;;;;3.40;2.00;;;;;;;;;;5030744;28;20218;-25
2022/06/18 02:03:58;;;;;;;2.60;1.73;;;;;;;;;;5011688;28;20217;-27
2022/06/18 02:06:25;;;;;;;2.93;1.70;;;;;;;;;;5026181;28;20238;-27
2022/06/18 02:08:53;;;;;;;2.10;1.80;;;;;;;;;;5030389;28;20198;-27
2022/06/18 02:11:20;;;;;;;1.90;1.80;;;;;;;;;;5023342;28;20206;-28
2022/06/18 02:13:50;;;;;;;2.00;1.90;;;;;;;;;;5023045;28;20210;-29
2022/06/18 02:16:18;;;;;;;3.40;2.27;;;;;;;;;;5030130;28;20708;-29
2022/06/18 02:18:47;;;;;;;3.90;2.10;;;;;;;;;;5023139;28;20230;-26
2022/06/18 02:21:16;;;;;;;2.10;2.00;;;;;;;;;;5024480;28;20202;-28
2022/06/18 02:23:43;;;;;;;4.67;2.40;;;;;;;;;;5029859;28;20194;-26
2022/06/18 02:26:10;;;;;;;4.17;2.10;;;;;;;;;;5025892;28;20233;-28
2022/06/18 02:28:40;;;;;;;5.60;2.30;;;;;;;;;;5027585;28;20213;-26
2022/06/18 02:31:07;;;;;;;1.90;1.80;;;;;;;;;;5031161;28;20202;-27
2022/06/18 02:33:37;;;;;;;2.97;1.70;;;;;;;;;;5014299;28;20207;-26
2022/06/18 02:36:11;;;;;;;2.70;2.00;;;;;;;;;;5032567;28;20222;-25
2022/06/18 02:38:38;;;;;;;3.87;1.90;;;;;;;;;;5033435;28;20230;-28
2022/06/18 02:41:05;;;;;;;4.17;2.30;;;;;;;;;;5025297;28;20209;-25
2022/06/18 02:43:34;;;;;;;1.83;1.73;;;;;;;;;;5024183;28;20221;-27
2022/06/18 02:46:01;;;;;;;1.80;1.70;;;;;;;;;;5029845;28;20225;-26
2022/06/18 02:48:31;;;;;;;3.60;2.10;;;;;;;;;;5025709;28;20237;-28
2022/06/18 02:51:00;;;;;;;1.93;1.70;;;;;;;;;;5021743;28;20214;-27
2022/06/18 02:53:30;;;;;;;3.20;2.00;;;;;;;;;;5029740;28;20207;-28
2022/06/18 02:55:59;;;;;;;4.30;2.30;;;;;;;;;;5019649;28;20280;-31
2022/06/18 02:58:27;;;;;;;2.03;1.77;;;;;;;;;;5021695;28;20530;-25
2022/06/18 03:00:56;;;;;;;1.90;1.80;;;;;;;;;;5033885;28;20233;-28
2022/06/18 03:03:27;;;;;;;2.33;2.00;;;;;;;;;;5017644;28;20203;-28
2022/06/18 03:05:54;;;;;;;2.30;2.10;;;;;;;;;;5032499;28;20218;-26
2022/06/18 03:08:22;;;;;;;4.83;1.93;;;;;;;;;;5033234;28;20205;-30
2022/06/18 03:13:36;;;;;;;1.80;1.70;;;;;;;;;;5014341;28;20304;-26
2022/06/18 03:16:03;;;;;;;2.10;2.00;;;;;;;;;;5033797;28;20316;-25
2022/06/18 03:18:31;;;;;;;2.00;1.80;;;;;;;;;;5025337;28;20233;-28
2022/06/18 03:21:01;;;;;;;2.57;2.00;;;;;;;;;;5032779;28;20253;-27
2022/06/18 03:23:28;;;;;;;2.07;1.97;;;;;;;;;;5033260;28;20234;-27
2022/06/18 03:25:57;;;;;;;2.90;1.83;;;;;;;;;;5033321;28;20229;-27
2022/06/18 03:28:25;;;;;;;2.10;1.87;;;;;;;;;;5030211;28;20209;-26
2022/06/18 03:30:52;;;;;;;2.40;1.87;;;;;;;;;;5033249;28;20216;-27
2022/06/18 03:33:19;;;;;;;1.83;1.70;;;;;;;;;;5021603;28;20211;-23
2022/06/18 03:35:47;;;;;;;1.90;1.70;;;;;;;;;;5026552;28;20206;-25
2022/06/18 03:38:15;;;;;;;2.37;1.73;;;;;;;;;;5034824;28;20230;-26
2022/06/18 03:40:43;;;;;;;2.50;1.80;;;;;;;;;;5029470;28;20259;-25
2022/06/18 03:43:11;;;;;;;2.13;1.63;;;;;;;;;;5035160;28;20293;-24
2022/06/18 03:45:39;;;;;;;2.57;1.73;;;;;;;;;;5035136;28;20203;-25
2022/06/18 03:48:08;;;;;;;1.90;1.80;;;;;;;;;;5022005;28;20199;-27
2022/06/18 03:50:35;;;;;;;1.87;1.70;;;;;;;;;;5031268;28;20218;-28
2022/06/18 03:53:03;;;;;;;5.87;1.83;;;;;;;;;;5034537;28;20209;-27
2022/06/18 03:55:31;;;;;;;2.13;2.00;;;;;;;;;;5026329;28;20207;-26
2022/06/18 03:57:58;;;;;;;1.80;1.70;;;;;;;;;;5020415;28;20319;-26
2022/06/18 04:00:26;;;;;;;1.93;1.60;;;;;;;;;;5034798;28;20245;-30
2022/06/18 04:02:53;;;;;;;2.10;1.80;;;;;;;;;;5029784;28;20233;-28
2022/06/18 04:05:20;;;;;;;6.63;2.20;;;;;;;;;;5027072;28;20217;-29
2022/06/18 04:07:47;;;;;;;2.03;1.93;;;;;;;;;;5034678;28;20305;-26
2022/06/18 04:10:18;;;;;;;2.60;2.00;;;;;;;;;;5029179;28;20290;-27
2022/06/18 04:12:46;;;;;;;2.27;2.07;;;;;;;;;;5032470;28;20212;-29
2022/06/18 04:15:15;;;;;;;2.10;1.90;;;;;;;;;;5034222;28;20224;-30
2022/06/18 04:17:44;;;;;;;2.03;1.87;;;;;;;;;;5028214;28;20234;-23
2022/06/18 04:20:17;;;;;;;2.40;2.07;;;;;;;;;;5027944;28;20206;-24
2022/06/18 04:22:44;;;;;;;2.27;1.83;;;;;;;;;;5033425;28;20206;-27
2022/06/18 04:25:11;;;;;;;2.87;1.90;;;;;;;;;;5034270;28;20212;-25
2022/06/18 04:27:38;;;;;;;2.27;2.00;;;;;;;;;;5028184;28;20226;-26
2022/06/18 04:30:06;;;;;;;2.10;2.00;;;;;;;;;;5033960;28;20206;-29
2022/06/18 04:32:35;;;;;;;2.63;2.27;;;;;;;;;;5025897;28;20210;-23
2022/06/18 04:35:04;;;;;;;2.50;1.87;;;;;;;;;;5019775;28;20210;-23
2022/06/18 04:37:31;;;;;;;2.10;1.90;;;;;;;;;;5034155;28;20226;-27
2022/06/18 04:39:58;;;;;;;1.97;1.87;;;;;;;;;;5031524;28;20206;-28
2022/06/18 04:42:26;;;;;;;3.20;1.83;;;;;;;;;;5017815;28;20218;-27
2022/06/18 04:44:53;;;;;;;4.80;1.80;;;;;;;;;;5033057;28;20224;-23
2022/06/18 04:47:20;;;;;;;2.13;1.93;;;;;;;;;;5031234;28;20243;-27
2022/06/18 04:49:47;;;;;;;2.37;2.17;;;;;;;;;;5026395;28;20218;-25
2022/06/18 04:52:16;;;;;;;3.13;2.03;;;;;;;;;;5033667;28;20206;-26
2022/06/18 04:54:43;;;;;;;2.40;2.20;;;;;;;;;;5033520;28;20289;-26
2022/06/18 04:57:10;;;;;;;2.60;2.40;;;;;;;;;;5028525;28;20222;-28
2022/06/18 04:59:38;;;;;;;2.73;2.23;;;;;;;;;;5028934;28;20229;-25
2022/06/18 05:02:07;;;;;;;2.50;2.33;;;;;;;;;;5032783;28;20202;-24
2022/06/18 05:04:34;;;;;;;2.50;2.30;;;;;;;;;;5015594;28;20222;-26
2022/06/18 05:07:01;;;;;;;2.30;2.20;;;;;;;;;;5033636;28;20329;-24
2022/06/18 05:09:30;;;;;;;2.63;2.20;;;;;;;;;;5033743;28;20202;-28
2022/06/18 05:11:57;;;;;;;2.25;2.05;;;;;;;;;;5022569;28;20206;-25
2022/06/18 05:14:24;;;;;;;3.45;2.20;;;;;;;;;;5033322;28;20206;-26
2022/06/18 05:16:51;;;;;;;2.83;2.25;;;;;;;;;;5029899;28;20219;-28
2022/06/18 05:19:23;;;;;;;3.45;2.42;;;;;;;;;;5016692;28;20240;-28
2022/06/18 05:21:50;;;;;;;2.35;2.15;;;;;;;;;;5032948;28;20195;-29
2022/06/18 05:24:17;;;;;;;3.15;2.33;;;;;;;;;;5034364;28;20216;-30
2022/06/18 05:26:48;;;;;;;5.20;2.58;;;;;;;;;;5029359;28;20236;-27
2022/06/18 05:29:16;;;;;;;2.10;2.00;;;;;;;;;;5026297;28;20200;-27
2022/06/18 05:31:43;;;;;;;2.20;1.95;;;;;;;;;;5033571;28;20204;-27
2022/06/18 05:34:10;;;;;;;2.10;2.00;;;;;;;;;;5028534;28;20217;-26
2022/06/18 05:36:38;;;;;;;2.35;2.15;;;;;;;;;;5033905;28;20235;-28
2022/06/18 05:39:06;;;;;;;2.13;1.92;;;;;;;;;;5033845;28;20221;-24
2022/06/18 05:41:33;;;;;;;6.75;1.92;;;;;;;;;;5020865;28;20213;-26
2022/06/18 05:44:03;;;;;;;2.00;1.90;;;;;;;;;;5026618;28;20215;-28
2022/06/18 05:46:30;;;;;;;3.63;2.45;;;;;;;;;;5032011;28;20224;-26
2022/06/18 05:48:57;;;;;;;2.55;2.35;;;;;;;;;;5279037;22;20323;-29
2022/06/18 05:51:25;;;;;;;2.63;2.20;;;;;;;;;;5015722;28;20209;-28
2022/06/18 05:53:52;;;;;;;2.15;1.95;;;;;;;;;;5011679;28;20219;-32
2022/06/18 05:56:19;;;;;;;2.20;2.10;;;;;;;;;;5012693;28;20594;-32
2022/06/18 05:58:46;;;;;;;3.83;2.30;;;;;;;;;;5012888;28;20223;-32
2022/06/18 06:01:15;;;;;;;2.08;1.98;;;;;;;;;;5013518;28;20216;-29
2022/06/18 06:03:42;;;;;;;4.57;2.28;;;;;;;;;;5002292;28;20212;-31
2022/06/18 06:06:09;;;;;;;2.80;2.08;;;;;;;;;;5010950;28;20223;-31
2022/06/18 06:08:36;;;;;;;2.42;2.00;;;;;;;;;;5010980;28;20206;-32
2022/06/18 06:13:48;;;;;;;3.15;2.17;;;;;;;;;;5006599;28;20219;-33
2022/06/18 06:16:16;;;;;;;2.78;2.20;;;;;;;;;;5010421;28;20229;-31
2022/06/18 06:18:43;;;;;;;1.98;1.88;;;;;;;;;;5001684;28;20224;-34
2022/06/18 06:21:10;;;;;;;4.35;1.92;;;;;;;;;;5004410;28;20214;-30
2022/06/18 06:23:38;;;;;;;2.22;1.80;;;;;;;;;;5010517;28;20214;-33
2022/06/18 06:26:07;;;;;;;4.05;1.73;;;;;;;;;;5001630;28;20223;-29
2022/06/18 06:28:34;;;;;;;2.10;2.00;;;;;;;;;;5009115;28;20203;-33
2022/06/18 06:31:01;;;;;;;3.38;2.00;;;;;;;;;;5010606;28;20217;-34
2022/06/18 06:33:30;;;;;;;2.33;1.80;;;;;;;;;;4994571;28;20203;-35
2022/06/18 06:35:57;;;;;;;2.03;1.90;;;;;;;;;;5002325;28;20222;-30
2022/06/18 06:38:24;;;;;;;3.83;2.10;;;;;;;;;;5009975;28;20199;-33
2022/06/18 06:40:51;;;;;;;3.00;2.03;;;;;;;;;;5003331;28;20207;-29
2022/06/18 06:43:19;;;;;;;3.65;1.90;;;;;;;;;;4998308;28;20238;-33
2022/06/18 06:45:46;;;;;;;2.17;2.08;;;;;;;;;;5010485;28;20230;-30
2022/06/18 06:48:13;;;;;;;2.08;1.88;;;;;;;;;;4998710;28;20216;-34
2022/06/18 06:50:42;;;;;;;4.07;2.08;;;;;;;;;;5007776;28;20203;-34
2022/06/18 06:53:09;;;;;;;1.80;1.70;;;;;;;;;;5010319;28;20211;-28
2022/06/18 06:58:23;;;;;;;2.33;2.13;;;;;;;;;;5005564;28;20215;-32
2022/06/18 07:00:51;;;;;;;2.47;1.70;;;;;;;;;;5010248;28;20202;-36
2022/06/18 07:03:21;;;;;;;2.10;1.98;;;;;;;;;;5001033;28;20299;-34
2022/06/18 07:05:49;;;;;;;2.97;1.80;;;;;;;;;;5008276;28;20207;-31
2022/06/18 07:08:16;;;;;;;2.45;2.03;;;;;;;;;;5009907;28;20203;-30
2022/06/18 07:10:44;;;;;;;4.20;2.10;;;;;;;;;;5007028;28;20210;-30
2022/06/18 07:13:12;;;;;;;3.78;2.88;;;;;;;;;;5004683;28;20290;-30
2022/06/18 07:15:39;;;;;;;2.20;2.10;;;;;;;;;;5009659;28;20214;-30
2022/06/18 07:18:07;;;;;;;2.30;2.15;;;;;;;;;;5001611;28;20215;-32
2022/06/18 07:20:34;;;;;;;5.18;1.90;;;;;;;;;;5006521;28;20523;-34
2022/06/18 07:23:03;;;;;;;2.03;1.85;;;;;;;;;;5010461;28;20203;-34
2022/06/18 07:25:30;;;;;;;2.45;1.90;;;;;;;;;;5010792;28;20207;-34
2022/06/18 07:27:57;;;;;;;2.13;2.03;;;;;;;;;;5003860;28;20314;-34
2022/06/18 07:30:24;;;;;;;1.88;1.77;;;;;;;;;;5005584;28;20211;-30
2022/06/18 07:32:51;;;;;;;5.05;2.30;;;;;;;;;;5004422;28;20398;-33
2022/06/18 07:35:20;;;;;;;3.42;2.30;;;;;;;;;;4996884;28;20222;-32
2022/06/18 07:37:47;;;;;;;2.78;2.08;;;;;;;;;;5009533;28;20238;-33
2022/06/18 07:40:16;;;;;;;3.42;2.10;;;;;;;;;;5004073;28;20314;-31
2022/06/18 07:42:43;;;;;;;2.35;1.88;;;;;;;;;;5011087;28;20207;-34
2022/06/18 07:45:15;;;;;;;2.13;1.92;;;;;;;;;;5012884;28;20656;-32
2022/06/18 07:47:42;;;;;;;1.92;1.83;;;;;;;;;;5003225;28;20224;-33
2022/06/18 07:50:10;;;;;;;1.90;1.80;;;;;;;;;;5012611;28;20203;-31
2022/06/18 07:52:37;;;;;;;2.85;2.10;;;;;;;;;;5012927;28;20209;-35
2022/06/18 07:55:04;;;;;;;2.60;2.20;;;;;;;;;;5013182;28;20221;-30
2022/06/18 07:57:33;;;;;;;7.68;2.90;;;;;;;;;;5005730;28;20234;-30
2022/06/18 08:00:00;;;;;;;2.15;2.05;;;;;;;;;;5004392;28;20715;-31
2022/06/18 08:02:27;;;;;;;2.03;1.92;;;;;;;;;;5005681;28;20219;-30
2022/06/18 08:04:54;;;;;;;4.57;2.97;;;;;;;;;;4997570;28;20303;-33
2022/06/18 08:07:21;;;;;;;1.95;1.83;;;;;;;;;;5012893;28;20234;-31
2022/06/18 08:09:48;;;;;;;2.22;1.90;;;;;;;;;;5009075;28;20208;-31
2022/06/18 08:12:16;;;;;;;3.13;2.25;;;;;;;;;;5008168;28;20203;-31
2022/06/18 08:14:44;;;;;;;2.33;2.00;;;;;;;;;;5012332;28;20314;-29
2022/06/18 08:17:12;;;;;;;2.17;2.03;;;;;;;;;;5007402;28;20231;-30
2022/06/18 08:19:40;;;;;;;3.65;2.03;;;;;;;;;;4995003;28;20239;-32
2022/06/18 08:22:07;;;;;;;2.88;2.17;;;;;;;;;;5012758;28;20701;-32
2022/06/18 08:24:34;;;;;;;4.18;2.47;;;;;;;;;;5010379;28;20254;-33
2022/06/18 08:27:02;;;;;;;2.53;1.90;;;;;;;;;;5004656;28;20254;-31
2022/06/18 08:29:30;;;;;;;1.77;1.67;;;;;;;;;;5011983;28;20210;-31
2022/06/18 08:31:58;;;;;;;2.35;2.10;;;;;;;;;;5008688;28;20250;-33
2022/06/18 08:34:25;;;;;;;2.67;2.13;;;;;;;;;;4999761;28;20211;-30
2022/06/18 08:36:53;;;;;;;3.70;2.30;;;;;;;;;;5011653;28;20238;-32
2022/06/18 08:39:20;;;;;;;6.22;2.55;;;;;;;;;;5009146;28;20227;-31
2022/06/18 08:41:59;;;;;;;2.58;1.80;;;;;;;;;;5010373;28;20386;-31
2022/06/18 08:44:43;;;;;;;2.17;2.00;;;;;;;;;;5011469;28;20199;-31
2022/06/18 08:47:21;;;;;;;3.58;2.40;;;;;;;;;;5007370;28;20232;-29
2022/06/18 08:50:06;;;;;;;2.35;2.15;;;;;;;;;;4995384;28;20218;-29
2022/06/18 08:52:44;;;;;;;2.20;2.10;;;;;;;;;;5011039;28;20207;-29
2022/06/18 08:55:16;;;;;;;1.90;1.80;;;;;;;;;;5011819;28;20210;-32
2022/06/18 08:57:47;;;;;;;3.47;2.28;;;;;;;;;;5000951;28;20228;-33
2022/06/18 09:00:15;;;;;;;2.17;2.00;;;;;;;;;;5011256;28;20218;-32
2022/06/18 09:02:48;;;;;;;5.07;2.22;;;;;;;;;;5004528;28;20210;-32
2022/06/18 09:05:20;;;;;;;2.67;2.00;;;;;;;;;;5011470;28;20210;-31
2022/06/18 09:08:05;;;;;;;3.72;2.00;;;;;;;;;;5011379;28;20227;-34
2022/06/18 09:10:37;;;;;;;2.03;1.90;;;;;;;;;;5009240;28;20207;-34
2022/06/18 09:13:07;;;;;;;4.50;1.90;;;;;;;;;;4999576;28;20235;-33
2022/06/18 09:15:37;;;;;;;4.30;1.80;;;;;;;;;;5008569;28;20238;-30
2022/06/18 09:18:09;;;;;;;1.88;1.65;;;;;;;;;;5000641;28;20204;-34
2022/06/18 09:20:37;;;;;;;1.90;1.80;;;;;;;;;;5008239;28;20241;-30
2022/06/18 09:23:07;;;;;;;4.50;1.95;;;;;;;;;;5012298;28;20206;-34
2022/06/18 09:25:36;;;;;;;2.75;1.85;;;;;;;;;;5008599;28;20203;-32
2022/06/18 09:28:04;;;;;;;4.43;2.20;;;;;;;;;;5008447;28;20226;-31
2022/06/18 09:30:34;;;;;;;2.80;1.83;;;;;;;;;;5011378;28;20203;-33
2022/06/18 09:33:03;;;;;;;2.67;2.00;;;;;;;;;;4999130;28;20212;-29
2022/06/18 09:35:33;;;;;;;6.18;1.80;;;;;;;;;;5007102;28;20211;-32
2022/06/18 09:38:03;;;;;;;2.80;1.95;;;;;;;;;;5010957;28;20211;-29
2022/06/18 09:40:32;;;;;;;4.38;2.00;;;;;;;;;;5011710;28;20374;-30
2022/06/18 09:43:02;;;;;;;1.80;1.70;;;;;;;;;;5007634;28;20211;-30
2022/06/18 09:45:32;;;;;;;6.22;2.05;;;;;;;;;;5010799;28;20207;-34
2022/06/18 09:47:59;;;;;;;3.50;1.70;;;;;;;;;;4990132;28;20222;-31
2022/06/18 09:50:28;;;;;;;3.78;1.65;;;;;;;;;;5006356;28;20210;-31
2022/06/18 09:53:02;;;;;;;2.22;1.73;;;;;;;;;;5010858;28;20222;-32
2022/06/18 09:55:34;;;;;;;1.55;1.45;;;;;;;;;;5000901;28;20224;-30
2022/06/18 09:58:03;;;;;;;4.43;1.80;;;;;;;;;;5003239;28;20203;-34
2022/06/18 10:00:32;;;;;;;2.80;1.63;;;;;;;;;;5011320;28;20219;-32
2022/06/18 10:03:03;;;;;;;2.38;1.52;;;;;;;;;;5003939;28;20203;-31
2022/06/18 10:08:20;;;;;;;1.75;1.65;;;;;;;;;;5006566;28;20288;-31
2022/06/18 10:10:50;;;;;;;1.60;1.50;;;;;;;;;;5012140;28;20207;-33
2022/06/18 10:13:21;;;;;;;2.70;1.30;;;;;;;;;;5008495;28;20662;-35
2022/06/18 10:15:48;;;;;;;2.47;1.90;;;;;;;;;;5010024;28;20203;-32
2022/06/18 10:18:22;;;;;;;1.60;1.50;;;;;;;;;;5007164;28;20210;-30
2022/06/18 10:20:52;;;;;;;1.80;1.52;;;;;;;;;;5004065;28;20211;-32
2022/06/18 10:23:29;;;;;;;1.45;1.35;;;;;;;;;;5012088;28;20199;-29
2022/06/18 10:25:59;;;;;;;1.40;1.30;;;;;;;;;;4998632;28;20227;-32
2022/06/18 10:28:30;;;;;;;3.33;1.55;;;;;;;;;;4999217;28;20217;-33
2022/06/18 10:31:02;;;;;;;1.83;1.30;;;;;;;;;;5010870;28;20202;-32
2022/06/18 10:33:34;;;;;;;3.22;1.60;;;;;;;;;;5001773;28;20293;-29
2022/06/18 10:36:09;;;;;;;1.63;1.52;;;;;;;;;;5010126;28;20673;-31
2022/06/18 10:38:53;;;;;;;2.50;1.73;;;;;;;;;;5010304;28;20210;-32
2022/06/18 10:41:24;;;;;;;2.92;1.48;;;;;;;;;;5005778;28;20237;-32
2022/06/18 10:43:59;;;;;;;1.88;1.50;;;;;;;;;;5007330;28;20218;-32
2022/06/18 10:46:26;;;;;;;1.67;1.10;;;;;;;;;;5010487;28;20222;-34
2022/06/18 10:48:55;;;;;;;1.70;1.60;;;;;;;;;;5002204;28;20211;-35
2022/06/18 10:51:23;;;;;;;5.85;1.75;;;;;;;;;;5005874;28;20196;-31
2022/06/18 10:53:53;;;;;;;2.45;1.80;;;;;;;;;;5010466;28;20195;-30
2022/06/18 10:56:21;;;;;;;1.58;1.48;;;;;;;;;;5008729;28;20324;-32
2022/06/18 10:58:49;;;;;;;1.88;1.77;;;;;;;;;;5002332;28;20222;-33
2022/06/18 11:01:17;;;;;;;1.52;1.42;;;;;;;;;;5010015;28;20222;-30
2022/06/18 11:03:54;;;;;;;2.47;2.05;;;;;;;;;;4999836;28;20216;-34
2022/06/18 11:06:21;;;;;;;2.22;1.73;;;;;;;;;;5006429;28;20250;-35
2022/06/18 11:08:51;;;;;;;2.20;1.77;;;;;;;;;;5012291;28;20694;-30
2022/06/18 11:11:22;;;;;;;1.70;1.60;;;;;;;;;;5006608;28;20211;-31
2022/06/18 11:13:50;;;;;;;2.10;1.50;;;;;;;;;;5008602;28;20453;-33
2022/06/18 11:16:19;;;;;;;1.80;1.70;;;;;;;;;;5012009;28;20229;-34
2022/06/18 11:18:48;;;;;;;1.55;1.45;;;;;;;;;;5004058;28;20724;-32
2022/06/18 11:21:17;;;;;;;3.20;1.73;;;;;;;;;;5013211;28;20230;-31
2022/06/18 11:23:47;;;;;;;1.77;1.67;;;;;;;;;;5013559;28;20210;-33
2022/06/18 11:26:22;;;;;;;1.77;1.60;;;;;;;;;;5014015;28;20231;-31
2022/06/18 11:28:53;;;;;;;1.70;1.60;;;;;;;;;;4996668;28;20210;-31
2022/06/18 11:31:25;;;;;;;1.70;1.60;;;;;;;;;;5014857;28;20199;-30
2022/06/18 11:33:58;;;;;;;1.95;1.85;;;;;;;;;;4998994;28;20416;-31
2022/06/18 11:36:33;;;;;;;1.88;1.70;;;;;;;;;;5014792;28;20227;-33
2022/06/18 11:39:02;;;;;;;4.85;2.03;;;;;;;;;;5013231;28;20203;-31
2022/06/18 11:41:32;;;;;;;2.38;2.17;;;;;;;;;;5006806;28;20246;-33
2022/06/18 11:44:03;;;;;;;1.90;1.80;;;;;;;;;;5012835;28;20212;-31
2022/06/18 11:46:33;;;;;;;4.25;2.00;;;;;;;;;;5013061;28;20223;-34
2022/06/18 11:51:32;;;;;;;2.42;1.80;;;;;;;;;;5006246;28;20393;-35
2022/06/18 11:54:06;;;;;;;2.45;1.80;;;;;;;;;;4996472;28;20207;-31
2022/06/18 11:56:35;;;;;;;6.18;2.10;;;;;;;;;;5004244;28;20243;-34
2022/06/18 11:59:09;;;;;;;5.43;2.10;;;;;;;;;;5022031;28;20250;-33
2022/06/18 12:01:39;;;;;;;2.63;1.83;;;;;;;;;;5022825;28;20211;-35
2022/06/18 12:04:11;;;;;;;4.38;1.90;;;;;;;;;;5025938;28;20203;-38
2022/06/18 12:06:40;;;;;;;2.33;1.80;;;;;;;;;;5025835;28;20222;-34
2022/06/18 12:09:10;;;;;;;2.30;2.10;;;;;;;;;;5033607;28;20219;-34
2022/06/18 12:11:45;;;;;;;7.15;3.33;;;;;;;;;;5017698;28;20199;-33
2022/06/18 12:14:15;;;;;;;4.57;2.42;;;;;;;;;;5015206;28;20192;-29
2022/06/18 12:16:46;;;;;;;2.95;2.20;;;;;;;;;;5015303;28;20225;-35
2022/06/18 12:19:19;;;;;;;3.55;2.22;;;;;;;;;;5028036;28;20213;-33
2022/06/18 12:21:49;;;;;;;2.33;2.13;;;;;;;;;;5025283;28;20207;-32
2022/06/18 12:24:21;;;;;;;2.70;2.00;;;;;;;;;;5035541;28;20187;-35
2022/06/18 12:26:53;;;;;;;2.35;2.15;;;;;;;;;;5029287;28;20237;-35
2022/06/18 12:29:38;;;;;;;2.65;1.88;;;;;;;;;;5027978;28;20218;-29
2022/06/18 12:32:12;;;;;;;5.70;2.35;;;;;;;;;;5014372;28;20202;-31
2022/06/18 12:34:41;;;;;;;3.65;2.58;;;;;;;;;;5023999;28;20211;-36
2022/06/18 12:37:18;;;;;;;2.78;2.22;;;;;;;;;;5023201;28;20306;-32
2022/06/18 12:39:53;;;;;;;3.95;2.30;;;;;;;;;;5015370;28;20286;-36
2022/06/18 12:42:23;;;;;;;4.20;2.13;;;;;;;;;;5014810;28;20211;-30
2022/06/18 12:44:53;;;;;;;3.63;2.10;;;;;;;;;;5014884;28;20203;-34
2022/06/18 12:47:26;;;;;;;5.88;2.22;;;;;;;;;;5018281;28;20226;-32
2022/06/18 12:49:58;;;;;;;2.45;2.20;;;;;;;;;;5021592;28;20246;-34
2022/06/18 12:52:31;;;;;;;5.32;2.55;;;;;;;;;;5022846;28;20210;-37
2022/06/18 12:55:04;;;;;;;3.78;2.33;;;;;;;;;;5014757;28;20198;-38
2022/06/18 12:57:36;;;;;;;5.07;2.30;;;;;;;;;;5018727;28;20247;-34
2022/06/18 13:00:06;;;;;;;3.10;2.08;;;;;;;;;;5026972;28;20193;-34
2022/06/18 13:02:46;;;;;;;3.03;1.98;;;;;;;;;;5026775;28;20202;-33
2022/06/18 13:05:16;;;;;;;2.28;2.08;;;;;;;;;;5020750;28;20266;-38
2022/06/18 13:07:49;;;;;;;6.85;2.53;;;;;;;;;;5014334;28;20230;-33
2022/06/18 13:10:19;;;;;;;5.90;2.38;;;;;;;;;;5012934;28;20317;-35
2022/06/18 13:12:53;;;;;;;5.75;2.55;;;;;;;;;;5016515;28;20209;-32
2022/06/18 13:15:28;;;;;;;3.28;2.00;;;;;;;;;;5025917;28;20207;-35
2022/06/18 13:18:00;;;;;;;6.93;2.22;;;;;;;;;;5022873;28;20227;-35
2022/06/18 13:20:29;;;;;;;3.90;2.05;;;;;;;;;;5033887;28;20234;-31
2022/06/18 13:22:57;;;;;;;4.15;1.95;;;;;;;;;;5034157;28;20210;-33
2022/06/18 13:28:12;;;;;;;4.03;2.22;;;;;;;;;;5026856;28;20209;-36
2022/06/18 13:30:48;;;;;;;2.30;2.10;;;;;;;;;;5025286;28;20202;-31
2022/06/18 13:33:22;;;;;;;6.75;2.25;;;;;;;;;;5024409;28;20245;-34
2022/06/18 13:35:52;;;;;;;3.90;2.53;;;;;;;;;;5025560;28;20213;-29
2022/06/18 13:38:24;;;;;;;4.05;2.20;;;;;;;;;;5018473;28;20191;-35
2022/06/18 13:40:53;;;;;;;4.32;1.88;;;;;;;;;;5013884;28;20207;-34
2022/06/18 13:43:28;;;;;;;4.75;2.33;;;;;;;;;;5021360;28;20210;-35
2022/06/18 13:45:59;;;;;;;3.17;2.35;;;;;;;;;;5013577;28;20218;-37
2022/06/18 13:48:34;;;;;;;6.80;2.40;;;;;;;;;;5014117;28;20211;-34
2022/06/18 13:51:01;;;;;;;5.13;2.55;;;;;;;;;;5023017;28;20292;-35
2022/06/18 13:53:29;;;;;;;7.38;2.67;;;;;;;;;;5016049;28;20266;-33
2022/06/18 13:55:56;;;;;;;5.03;2.25;;;;;;;;;;5016715;28;20230;-32
2022/06/18 13:58:25;;;;;;;7.55;2.70;;;;;;;;;;5013801;28;20207;-41
2022/06/18 14:00:52;;;;;;;18.08;10.45;;;;;;;;;;5013199;28;20223;-37
2022/06/18 14:03:22;;;;;;;5.70;2.83;;;;;;;;;;5022862;28;20207;-33
2022/06/18 14:05:55;;;;;;;6.32;3.13;;;;;;;;;;5015755;28;20203;-31
2022/06/18 14:08:24;;;;;;;13.85;3.85;;;;;;;;;;5032408;28;20293;-37
2022/06/18 14:10:52;;;;;;;4.40;2.75;;;;;;;;;;5027570;28;20209;-39
2022/06/18 14:13:25;;;;;;;7.35;2.45;;;;;;;;;;5025176;28;20210;-38
2022/06/18 14:15:55;;;;;;;9.25;2.65;;;;;;;;;;5021693;28;20227;-32
2022/06/18 14:18:26;;;;;;;9.27;2.70;;;;;;;;;;5015026;28;20207;-32
2022/06/18 14:20:59;;;;;;;6.10;2.25;;;;;;;;;;5024398;28;20210;-35
2022/06/18 14:23:28;;;;;;;10.55;2.67;;;;;;;;;;5016168;28;20203;-33
2022/06/18 14:26:01;;;;;;;11.13;3.30;;;;;;;;;;5016317;28;20231;-32
2022/06/18 14:28:30;;;;;;;12.25;3.22;;;;;;;;;;5028824;28;20206;-37
2022/06/18 14:31:05;;;;;;;9.00;2.25;;;;;;;;;;5013638;28;20203;-31
2022/06/18 14:33:36;;;;;;;8.73;2.83;;;;;;;;;;5026250;28;20208;-32
2022/06/18 14:36:11;;;;;;;12.95;2.70;;;;;;;;;;5027990;28;20631;-34
2022/06/18 14:38:39;;;;;;;13.32;3.22;;;;;;;;;;5012984;28;20202;-34
2022/06/18 14:44:03;;;;;;;15.25;2.88;;;;;;;;;;5024553;28;20280;-40
2022/06/18 14:46:36;;;;;;;11.55;3.53;;;;;;;;;;5016659;28;20238;-31
2022/06/18 14:49:11;;;;;;;18.05;3.42;;;;;;;;;;5014350;28;20203;-34
2022/06/18 14:51:49;;;;;;;11.90;3.70;;;;;;;;;;5021134;28;20186;-36
2022/06/18 14:54:33;;;;;;;13.23;3.35;;;;;;;;;;5032161;28;20221;-34
2022/06/18 14:57:15;;;;;;;14.48;3.63;;;;;;;;;;5020010;28;20230;-36
2022/06/18 14:59:57;;;;;;;9.73;3.10;;;;;;;;;;5014285;28;20199;-32
2022/06/18 15:02:26;;;;;;;11.32;3.50;;;;;;;;;;5026913;28;20220;-35
2022/06/18 15:04:56;;;;;;;12.93;2.95;;;;;;;;;;5026852;28;20230;-39
2022/06/18 15:07:29;;;;;;;8.55;2.90;;;;;;;;;;5012518;28;20227;-32
2022/06/18 15:09:56;;;;;;;10.95;3.00;;;;;;;;;;5013077;28;20192;-31
2022/06/18 15:12:23;;;;;;;8.98;2.85;;;;;;;;;;5027395;28;20211;-36
2022/06/18 15:14:53;;;;;;;12.30;3.50;;;;;;;;;;5020476;28;20202;-36
2022/06/18 15:17:31;;;;;;;11.93;2.83;;;;;;;;;;5014212;28;20246;-33
2022/06/18 15:20:09;;;;;;;10.23;3.50;;;;;;;;;;5024947;28;20248;-37
2022/06/18 15:22:56;;;;;;;11.30;2.85;;;;;;;;;;5015379;28;20211;-37